createdAt,value
2019-04-26T00:01:09.014Z,96394.86
2019-04-26T00:03:45.535Z,96400.77
2019-04-26T00:06:18.672Z,96397.98
2019-04-26T00:08:54.585Z,96399.06
2019-04-26T00:11:44.775Z,96414.15
2019-04-26T00:14:28.832Z,96436.93
2019-04-26T00:17:07.648Z,96456.21
2019-04-26T00:19:39.182Z,96434.75
2019-04-26T00:22:10.983Z,96423.19
2019-04-26T00:24:43.693Z,96422.73
2019-04-26T00:27:14.987Z,96420.41
2019-04-26T00:29:46.307Z,96432.02
2019-04-26T00:32:25.469Z,96428.19
2019-04-26T00:34:56.866Z,96424.96
2019-04-26T00:37:28.777Z,96421.80
2019-04-26T00:39:59.418Z,96417.14
2019-04-26T00:42:31.898Z,96429.92
2019-04-26T00:45:02.864Z,96437.09
2019-04-26T00:47:34.914Z,96442.89
2019-04-26T00:50:07.100Z,96437.55
2019-04-26T00:52:39.545Z,96439.48
2019-04-26T00:55:11.200Z,96455.45
2019-04-26T00:57:44.008Z,96455.52
2019-04-26T01:00:16.866Z,96437.97
2019-04-26T01:02:52.085Z,96429.14
2019-04-26T01:05:26.364Z,96442.28
2019-04-26T01:07:58.214Z,96441.55
2019-04-26T01:10:29.214Z,96452.08
2019-04-26T01:13:00.555Z,96468.81
2019-04-26T01:15:32.155Z,96473.72
2019-04-26T01:18:03.479Z,96458.28
2019-04-26T01:20:37.114Z,96447.71
2019-04-26T01:23:10.726Z,96448.02
2019-04-26T01:26:10.109Z,96445.55
2019-04-26T01:28:52.530Z,96466.84
2019-04-26T01:31:24.003Z,96468.01
2019-04-26T01:33:55.884Z,96467.48
2019-04-26T01:36:29.380Z,96473.73
2019-04-26T01:39:09.734Z,96457.63
2019-04-26T01:41:46.494Z,96463.95
2019-04-26T01:44:36.790Z,96476.52
2019-04-26T01:47:08.537Z,96479.57
2019-04-26T01:49:40.284Z,96482.77
2019-04-26T01:52:15.349Z,96487.50
2019-04-26T01:54:47.887Z,96487.52
2019-04-26T01:57:19.435Z,96475.88
2019-04-26T01:59:54.983Z,96481.30
2019-04-26T02:02:42.948Z,96485.30
2019-04-26T02:05:18.620Z,96484.49
2019-04-26T02:07:50.480Z,96468.51
2019-04-26T02:10:23.980Z,96476.64
2019-04-26T02:12:56.659Z,96483.39
2019-04-26T02:15:33.351Z,96481.88
2019-04-26T02:18:05.636Z,96490.30
2019-04-26T02:21:27.930Z,96507.05
2019-04-26T02:24:03.660Z,96500.06
2019-04-26T02:26:45.381Z,96501.26
2019-04-26T02:29:21.745Z,96493.89
2019-04-26T02:31:57.713Z,96478.94
2019-04-26T02:34:31.084Z,96475.81
2019-04-26T02:37:04.668Z,96482.09
2019-04-26T02:39:40.568Z,96486.34
2019-04-26T02:42:47.667Z,96491.70
2019-04-26T02:46:21.054Z,96498.95
2019-04-26T02:49:21.907Z,96501.41
2019-04-26T02:52:35.223Z,96507.03
2019-04-26T02:55:14.812Z,96502.61
2019-04-26T02:57:51.666Z,96497.69
2019-04-26T03:00:22.420Z,96507.54
2019-04-26T03:03:02.869Z,96511.88
2019-04-26T03:05:37.497Z,96529.16
2019-04-26T03:08:18.837Z,96534.64
2019-04-26T03:11:17.528Z,96524.55
2019-04-26T03:13:59.433Z,96524.52
2019-04-26T03:16:56.067Z,96511.20
2019-04-26T03:19:48.905Z,96508.39
2019-04-26T03:23:45.436Z,96533.11
2019-04-26T03:26:48.812Z,96526.65
2019-04-26T03:29:41.985Z,96533.17
2019-04-26T03:32:50.695Z,96524.33
2019-04-26T03:35:56.552Z,96519.41
2019-04-26T03:38:46.427Z,96525.69
2019-04-26T03:41:36.277Z,96537.72
2019-04-26T03:44:40.483Z,96549.80
2019-04-26T03:47:17.917Z,96545.70
2019-04-26T03:50:23.837Z,96553.70
2019-04-26T03:53:22.341Z,96559.61
2019-04-26T03:56:31.569Z,96558.98
2019-04-26T03:59:35.195Z,96563.19
2019-04-26T04:02:30.585Z,96575.19
2019-04-26T04:05:43.704Z,96576.99
2019-04-26T04:08:21.717Z,96592.58
2019-04-26T04:11:01.992Z,96590.02
2019-04-26T04:13:54.973Z,96596.38
2019-04-26T04:17:17.524Z,96593.36
2019-04-26T04:21:09.127Z,96604.77
2019-04-26T04:24:18.920Z,96602.37
2019-04-26T04:27:26.669Z,96613.06
2019-04-26T04:30:40.634Z,96621.47
2019-04-26T04:33:47.846Z,96623.73
2019-04-26T04:36:41.721Z,96635.34
2019-04-26T04:39:36.686Z,96629.53
2019-04-26T04:43:08.107Z,96640.52
2019-04-26T04:46:49.773Z,96655.16
2019-04-26T04:49:48.960Z,96655.52
2019-04-26T04:52:49.964Z,96646.98
2019-04-26T04:55:52.894Z,96647.96
2019-04-26T04:58:32.455Z,96654.63
2019-04-26T05:02:07.158Z,96651.69
2019-04-26T05:05:40.522Z,96670.66
2019-04-26T05:08:40.811Z,96689.41
2019-04-26T05:11:22.647Z,96691.47
2019-04-26T05:14:12.545Z,96681.95
2019-04-26T05:17:26.574Z,96685.23
2019-04-26T05:20:39.082Z,96696.16
2019-04-26T05:24:16.382Z,96705.39
2019-04-26T05:27:48.589Z,96707.20
2019-04-26T05:31:09.850Z,96707.72
2019-04-26T05:34:39.288Z,96710.27
2019-04-26T05:37:59.062Z,96712.41
2019-04-26T05:41:15.123Z,96718.07
2019-04-26T05:44:13.587Z,96724.78
2019-04-26T05:47:11.866Z,96742.17
2019-04-26T05:50:49.177Z,96741.95
2019-04-26T05:54:38.493Z,96751.59
2019-04-26T05:57:56.334Z,96749.75
2019-04-26T06:01:53.343Z,96742.81
2019-04-26T06:04:59.298Z,96752.88
2019-04-26T06:08:31.385Z,96757.13
2019-04-26T06:11:09.074Z,96752.80
2019-04-26T06:14:25.106Z,96760.33
2019-04-26T06:18:09.963Z,96769.72
2019-04-26T06:21:09.540Z,96779.23
2019-04-26T06:24:41.252Z,96780.45
2019-04-26T06:27:48.482Z,96794.73
2019-04-26T06:30:44.839Z,96803.05
2019-04-26T06:33:41.251Z,96807.80
2019-04-26T06:36:29.238Z,96805.77
2019-04-26T06:39:31.075Z,96804.00
2019-04-26T06:43:00.589Z,96801.77
2019-04-26T06:46:33.413Z,96799.03
2019-04-26T06:49:58.831Z,96810.77
2019-04-26T06:52:32.838Z,96826.98
2019-04-26T06:55:21.262Z,96812.27
2019-04-26T06:58:51.834Z,96801.84
2019-04-26T07:01:48.060Z,96801.16
2019-04-26T07:05:10.017Z,96808.53
2019-04-26T07:08:21.206Z,96817.91
2019-04-26T07:11:55.616Z,96811.39
2019-04-26T07:15:27.716Z,96815.83
2019-04-26T07:18:56.258Z,96816.53
2019-04-26T07:22:34.544Z,96826.34
2019-04-26T07:25:42.380Z,96833.52
2019-04-26T07:28:55.890Z,96837.50
2019-04-26T07:31:54.809Z,96837.46
2019-04-26T07:35:19.293Z,96841.19
2019-04-26T07:39:13.291Z,96853.22
2019-04-26T07:42:34.305Z,96855.59
2019-04-26T07:45:55.707Z,96872.14
2019-04-26T07:49:19.212Z,96889.17
2019-04-26T07:52:55.206Z,96893.16
2019-04-26T07:56:02.322Z,96891.19
2019-04-26T07:59:49.774Z,96883.75
2019-04-26T08:03:01.298Z,96897.88
2019-04-26T08:06:05.909Z,96895.51
2019-04-26T08:08:48.327Z,96898.52
2019-04-26T08:11:31.940Z,96900.02
2019-04-26T08:14:30.182Z,96903.58
2019-04-26T08:17:47.240Z,96906.98
2019-04-26T08:20:39.030Z,96901.30
2019-04-26T08:23:34.981Z,96908.53
2019-04-26T08:25:49.828Z,96926.12
2019-04-26T08:28:22.751Z,96930.49
2019-04-26T08:30:56.651Z,96941.20
2019-04-26T08:33:34.763Z,96945.31
2019-04-26T08:36:08.731Z,96941.73
2019-04-26T08:38:40.663Z,96937.64
2019-04-26T08:41:12.007Z,96929.66
2019-04-26T08:44:14.421Z,96926.78
2019-04-26T08:47:05.966Z,96924.45
2019-04-26T08:49:45.512Z,96936.31
2019-04-26T08:52:19.556Z,96938.27
2019-04-26T08:54:56.491Z,96946.02
2019-04-26T08:57:32.254Z,96953.55
2019-04-26T09:00:05.599Z,96956.67
2019-04-26T09:03:10.964Z,96956.58
2019-04-26T09:06:00.666Z,96952.98
2019-04-26T09:08:39.333Z,96947.67
2019-04-26T09:11:25.469Z,96941.33
2019-04-26T09:13:50.146Z,96937.23
2019-04-26T09:16:22.494Z,96944.69
2019-04-26T09:18:57.287Z,96956.67
2019-04-26T09:21:34.975Z,96965.98
2019-04-26T09:24:15.766Z,96967.31
2019-04-26T09:26:49.547Z,96963.20
2019-04-26T09:29:30.164Z,96966.80
2019-04-26T09:32:04.432Z,96967.09
2019-04-26T09:34:36.502Z,96970.34
2019-04-26T09:37:07.820Z,96973.43
2019-04-26T09:39:41.583Z,96976.75
2019-04-26T09:42:39.397Z,96976.41
2019-04-26T09:45:19.110Z,96990.62
2019-04-26T09:48:13.430Z,97008.19
2019-04-26T09:50:47.337Z,97013.81
2019-04-26T09:53:19.533Z,97013.48
2019-04-26T09:55:50.880Z,97018.67
2019-04-26T09:58:21.915Z,97020.05
2019-04-26T10:00:53.259Z,97025.59
2019-04-26T10:03:24.715Z,97024.56
2019-04-26T10:05:57.106Z,97021.03
2019-04-26T10:08:28.406Z,97022.84
2019-04-26T10:10:59.645Z,97021.08
2019-04-26T10:13:59.184Z,97005.00
2019-04-26T10:16:42.089Z,96999.72
2019-04-26T10:19:16.110Z,97002.10
2019-04-26T10:21:47.779Z,97006.95
2019-04-26T10:24:19.634Z,96997.41
2019-04-26T10:26:51.079Z,96990.92
2019-04-26T10:29:25.612Z,96985.68
2019-04-26T10:31:54.804Z,97000.04
2019-04-26T10:34:26.170Z,97012.20
2019-04-26T10:37:01.693Z,97020.07
2019-04-26T10:39:32.465Z,97032.08
2019-04-26T10:42:03.290Z,97037.63
2019-04-26T10:44:35.757Z,97041.73
2019-04-26T10:47:08.162Z,97043.97
2019-04-26T10:49:47.732Z,97042.92
2019-04-26T10:52:26.482Z,97045.45
2019-04-26T10:55:12.137Z,97046.43
2019-04-26T10:57:43.202Z,97030.02
2019-04-26T11:00:23.777Z,97007.51
2019-04-26T11:02:54.782Z,96982.28
2019-04-26T11:05:25.949Z,96970.43
2019-04-26T11:07:57.594Z,96981.11
2019-04-26T11:10:29.799Z,96997.09
2019-04-26T11:13:01.242Z,97002.39
2019-04-26T11:15:32.727Z,97013.20
2019-04-26T11:18:03.990Z,97036.52
2019-04-26T11:20:34.644Z,97051.54
2019-04-26T11:23:08.176Z,97051.90
2019-04-26T11:25:39.297Z,97051.41
2019-04-26T11:28:10.910Z,97038.85
2019-04-26T11:30:42.530Z,97023.59
2019-04-26T11:33:44.264Z,97002.00
2019-04-26T11:36:07.401Z,96997.13
2019-04-26T11:38:38.821Z,97011.91
2019-04-26T11:41:10.408Z,97031.58
2019-04-26T11:43:41.668Z,97042.09
2019-04-26T11:46:13.325Z,97017.75
2019-04-26T11:48:44.391Z,97026.92
2019-04-26T11:51:15.506Z,97047.24
2019-04-26T11:53:47.572Z,97063.30
2019-04-26T11:56:18.817Z,97067.43
2019-04-26T11:58:52.572Z,97072.17
2019-04-26T12:01:24.802Z,97064.84
2019-04-26T12:04:30.084Z,97056.39
2019-04-26T12:07:06.829Z,97069.39
2019-04-26T12:09:40.410Z,97094.17
2019-04-26T12:12:13.163Z,97094.26
2019-04-26T12:14:45.175Z,97088.31
2019-04-26T12:17:16.448Z,97089.06
2019-04-26T12:19:48.176Z,97099.13
2019-04-26T12:22:21.086Z,97094.06
2019-04-26T12:24:52.079Z,97084.44
2019-04-26T12:27:26.541Z,97087.80
2019-04-26T12:29:56.721Z,97088.91
2019-04-26T12:32:28.066Z,97097.70
2019-04-26T12:34:59.243Z,97102.27
2019-04-26T12:37:30.457Z,97092.95
2019-04-26T12:40:02.075Z,97090.89
2019-04-26T12:42:32.962Z,97089.36
2019-04-26T12:45:29.598Z,97088.94
2019-04-26T12:48:08.097Z,97093.66
2019-04-26T12:50:39.103Z,97100.65
2019-04-26T12:53:09.769Z,97099.33
2019-04-26T12:55:40.824Z,97094.34
2019-04-26T12:58:15.127Z,97107.84
2019-04-26T13:00:53.701Z,97116.29
2019-04-26T13:03:20.618Z,97128.20
2019-04-26T13:05:57.612Z,97132.23
2019-04-26T13:08:23.694Z,97125.70
2019-04-26T13:11:28.958Z,97127.31
2019-04-26T13:14:05.207Z,97120.73
2019-04-26T13:16:57.206Z,97117.20
2019-04-26T13:19:27.465Z,97126.34
2019-04-26T13:21:58.534Z,97121.07
2019-04-26T13:24:29.446Z,97124.30
2019-04-26T13:27:00.872Z,97121.75
2019-04-26T13:29:32.201Z,97118.16
2019-04-26T13:32:03.591Z,97116.45
2019-04-26T13:34:37.162Z,97114.11
2019-04-26T13:37:08.134Z,97102.34
2019-04-26T13:39:39.104Z,97094.25
2019-04-26T13:42:13.559Z,97085.71
2019-04-26T13:45:05.115Z,97081.00
2019-04-26T13:47:50.487Z,97073.49
2019-04-26T13:50:28.325Z,97077.84
2019-04-26T13:52:59.989Z,97073.73
2019-04-26T13:55:33.656Z,97064.92
2019-04-26T13:58:03.788Z,97069.13
2019-04-26T14:00:35.244Z,97068.42
2019-04-26T14:03:06.367Z,97074.53
2019-04-26T14:05:38.244Z,97092.22
2019-04-26T14:08:09.327Z,97092.27
2019-04-26T14:10:40.025Z,97088.52
2019-04-26T14:13:11.346Z,97095.33
2019-04-26T14:15:44.031Z,97098.16
2019-04-26T14:18:15.084Z,97096.03
2019-04-26T14:20:45.420Z,97090.42
2019-04-26T14:23:38.035Z,97093.92
2019-04-26T14:26:11.970Z,97095.13
2019-04-26T14:28:43.197Z,97094.98
2019-04-26T14:31:16.501Z,97093.47
2019-04-26T14:33:47.766Z,97094.89
2019-04-26T14:36:18.757Z,97085.33
2019-04-26T14:38:51.468Z,97080.03
2019-04-26T14:41:23.782Z,97077.02
2019-04-26T14:43:56.708Z,97075.46
2019-04-26T14:46:27.937Z,97082.02
2019-04-26T14:49:02.140Z,97082.83
2019-04-26T14:51:32.765Z,97080.27
2019-04-26T14:54:07.417Z,97075.23
2019-04-26T14:56:37.160Z,97073.81
2019-04-26T14:59:10.203Z,97080.73
2019-04-26T15:01:59.481Z,97078.56
2019-04-26T15:04:50.521Z,97082.03
2019-04-26T15:07:22.257Z,97064.09
2019-04-26T15:09:52.972Z,97058.31
2019-04-26T15:12:24.060Z,97051.49
2019-04-26T15:14:56.819Z,97055.20
2019-04-26T15:17:28.502Z,97072.48
2019-04-26T15:19:59.535Z,97073.56
2019-04-26T15:22:30.568Z,97074.94
2019-04-26T15:25:03.327Z,97081.86
2019-04-26T15:27:36.177Z,97084.42
2019-04-26T15:30:09.126Z,97101.88
2019-04-26T15:32:39.811Z,97100.80
2019-04-26T15:35:15.937Z,97096.55
2019-04-26T15:37:44.599Z,97096.66
2019-04-26T15:40:44.410Z,97093.85
2019-04-26T15:43:34.404Z,97096.20
2019-04-26T15:46:30.167Z,97093.95
2019-04-26T15:49:38.753Z,97096.58
2019-04-26T15:52:09.554Z,97091.67
2019-04-26T15:54:42.406Z,97087.39
2019-04-26T15:57:13.727Z,97088.36
2019-04-26T15:59:44.752Z,97090.10
2019-04-26T16:02:18.338Z,97097.56
2019-04-26T16:04:51.291Z,97105.11
2019-04-26T16:07:27.397Z,97110.41
2019-04-26T16:09:57.318Z,97105.82
2019-04-26T16:12:27.826Z,97109.33
2019-04-26T16:14:59.598Z,97112.05
2019-04-26T16:17:30.671Z,97110.94
2019-04-26T16:20:03.499Z,97112.22
2019-04-26T16:22:34.839Z,97106.61
2019-04-26T16:25:06.413Z,97103.89
2019-04-26T16:27:37.761Z,97106.84
2019-04-26T16:30:32.580Z,97106.08
2019-04-26T16:33:28.512Z,97102.38
2019-04-26T16:38:37.209Z,97092.13
2019-04-26T16:41:08.529Z,97087.52
2019-04-26T16:43:44.861Z,97088.20
2019-04-26T16:48:46.508Z,97083.69
2019-04-26T16:51:18.465Z,97081.80
2019-04-26T16:54:03.760Z,97077.17
2019-04-26T16:56:26.539Z,97083.28
2019-04-26T16:58:55.286Z,97085.79
2019-04-26T17:00:32.073Z,97084.84
2019-04-26T17:01:47.643Z,97080.48
2019-04-26T17:04:20.174Z,97081.77
2019-04-26T17:06:52.911Z,97081.80
2019-04-26T17:09:29.586Z,97084.58
2019-04-26T17:09:50.913Z,97102.02
2019-04-26T17:11:57.725Z,97084.05
2019-04-26T17:14:29.358Z,97084.02
2019-04-26T17:17:00.418Z,97076.97
2019-04-26T17:19:35.931Z,97077.91
2019-04-26T17:22:18.261Z,97088.06
2019-04-26T17:24:54.041Z,97087.28
2019-04-26T17:27:25.687Z,97087.55
2019-04-26T17:29:56.703Z,97089.94
2019-04-26T17:32:28.071Z,97095.97
2019-04-26T17:35:03.582Z,97099.54
2019-04-26T17:37:32.311Z,97110.70
2019-04-26T17:40:03.422Z,97104.02
2019-04-26T17:42:37.223Z,97102.52
2019-04-26T17:45:08.590Z,97104.12
2019-04-26T17:47:41.842Z,97105.96
2019-04-26T17:50:12.522Z,97110.86
2019-04-26T17:52:44.333Z,97102.78
2019-04-26T17:55:15.512Z,97107.66
2019-04-26T17:57:48.699Z,97106.78
2019-04-26T18:00:26.901Z,97110.75
2019-04-26T18:02:56.819Z,97114.13
2019-04-26T18:05:44.961Z,97121.13
2019-04-26T18:08:30.418Z,97121.72
2019-04-26T18:10:35.637Z,97125.45
2019-04-26T18:13:09.777Z,97121.48
2019-04-26T18:15:39.995Z,97127.20
2019-04-26T18:18:29.478Z,97125.33
2019-04-26T18:21:20.554Z,97122.41
2019-04-26T18:23:56.913Z,97122.53
2019-04-26T18:26:25.252Z,97122.77
2019-04-26T18:28:58.523Z,97127.41
2019-04-26T18:31:30.467Z,97132.64
2019-04-26T18:34:01.837Z,97134.55
2019-04-26T18:36:33.263Z,97131.18
2019-04-26T18:39:04.323Z,97131.03
2019-04-26T18:41:35.703Z,97130.75
2019-04-26T18:44:06.796Z,97132.64
2019-04-26T18:46:47.349Z,97133.59
2019-04-26T18:49:22.605Z,97131.21
2019-04-26T18:51:51.308Z,97132.25
2019-04-26T18:54:51.400Z,97136.59
2019-04-26T18:57:23.897Z,97140.26
2019-04-26T18:59:55.250Z,97146.05
2019-04-26T19:02:29.073Z,97146.49
2019-04-26T19:05:00.412Z,97150.70
2019-04-26T19:07:32.734Z,97148.87
2019-04-26T19:10:05.527Z,97150.74
2019-04-26T19:12:37.878Z,97155.56
2019-04-26T19:15:40.015Z,97158.87
2019-04-26T19:18:14.149Z,97165.47
2019-04-26T19:21:11.656Z,97169.05
2019-04-26T19:23:43.436Z,97165.20
2019-04-26T19:26:15.273Z,97172.34
2019-04-26T19:28:47.115Z,97170.72
2019-04-26T19:31:19.282Z,97171.73
2019-04-26T19:34:03.943Z,97177.14
2019-04-26T19:36:35.937Z,97179.12
2019-04-26T19:39:08.118Z,97184.75
2019-04-26T19:41:39.506Z,97181.95
2019-04-26T19:44:10.517Z,97188.17
2019-04-26T19:47:07.855Z,97197.13
2019-04-26T19:50:03.236Z,97195.75
2019-04-26T19:52:53.863Z,97201.78
2019-04-26T19:55:51.423Z,97204.29
2019-04-26T19:58:24.041Z,97210.73
2019-04-26T20:00:55.541Z,97214.47
2019-04-26T20:03:27.202Z,97213.28
2019-04-26T20:05:58.545Z,97214.57
2019-04-26T20:08:30.146Z,97215.62
2019-04-26T20:11:01.691Z,97209.30
2019-04-26T20:13:33.464Z,97209.45
2019-04-26T20:16:05.993Z,97210.54
2019-04-26T20:18:38.881Z,97204.91
2019-04-26T20:21:15.229Z,97208.40
2019-04-26T20:23:47.319Z,97209.28
2019-04-26T20:26:17.601Z,97205.11
2019-04-26T20:28:48.971Z,97214.85
2019-04-26T20:31:27.572Z,97215.39
2019-04-26T20:33:58.874Z,97221.22
2019-04-26T20:36:37.178Z,97223.73
2019-04-26T20:39:03.292Z,97219.08
2019-04-26T20:41:34.635Z,97222.67
2019-04-26T20:44:09.762Z,97209.98
2019-04-26T20:46:38.433Z,97211.65
2019-04-26T20:49:11.238Z,97212.47
2019-04-26T20:51:46.295Z,97211.28
2019-04-26T20:54:17.452Z,97210.36
2019-04-26T20:56:52.499Z,97210.77
2019-04-26T20:59:23.531Z,97207.94
2019-04-26T21:02:03.367Z,97205.00
2019-04-26T21:04:38.102Z,97208.71
2019-04-26T21:07:02.358Z,97212.60
2019-04-26T21:09:36.353Z,97206.95
2019-04-26T21:12:08.633Z,97215.45
2019-04-26T21:14:44.522Z,97217.02
2019-04-26T21:17:13.602Z,97211.34
2019-04-26T21:19:44.326Z,97213.10
2019-04-26T21:22:18.244Z,97214.28
2019-04-26T21:24:50.604Z,97223.97
2019-04-26T21:27:43.033Z,97220.29
2019-04-26T21:30:42.045Z,97226.40
2019-04-26T21:33:28.707Z,97226.98
2019-04-26T21:36:14.027Z,97229.28
2019-04-26T21:39:07.597Z,97227.08
2019-04-26T21:41:40.369Z,97223.30
2019-04-26T21:44:12.250Z,97228.42
2019-04-26T21:46:44.176Z,97223.01
2019-04-26T21:49:20.190Z,97227.91
2019-04-26T21:51:52.031Z,97237.39
2019-04-26T21:54:24.944Z,97233.98
2019-04-26T21:56:55.527Z,97232.64
2019-04-26T21:59:26.436Z,97226.16
2019-04-26T22:01:59.155Z,97219.23
2019-04-26T22:04:36.325Z,97220.98
2019-04-26T22:07:05.150Z,97217.34
2019-04-26T22:09:55.307Z,97217.66
2019-04-26T22:12:30.932Z,97216.33
2019-04-26T22:15:37.398Z,97221.03
2019-04-26T22:18:15.288Z,97219.40
2019-04-26T22:20:58.016Z,97223.12
2019-04-26T22:23:36.038Z,97222.64
2019-04-26T22:26:08.583Z,97227.17
2019-04-26T22:28:39.660Z,97223.59
2019-04-26T22:31:11.296Z,97223.20
2019-04-26T22:33:42.849Z,97224.47
2019-04-26T22:36:15.266Z,97221.23
2019-04-26T22:38:46.936Z,97220.89
2019-04-26T22:41:18.306Z,97226.48
2019-04-26T22:44:14.472Z,97224.48
2019-04-26T22:47:07.838Z,97225.75
2019-04-26T22:49:41.850Z,97229.74
2019-04-26T22:52:16.246Z,97224.80
2019-04-26T22:54:46.688Z,97222.70
2019-04-26T22:57:18.501Z,97224.13
2019-04-26T22:59:50.740Z,97223.41
2019-04-26T23:02:25.830Z,97228.38
2019-04-26T23:04:56.129Z,97230.02
2019-04-26T23:07:28.569Z,97235.12
2019-04-26T23:10:00.314Z,97231.46
2019-04-26T23:12:48.972Z,97236.80
2019-04-26T23:15:33.153Z,97236.06
2019-04-26T23:18:33.503Z,97237.03
2019-04-26T23:21:14.927Z,97236.03
2019-04-26T23:23:45.331Z,97239.42
2019-04-26T23:26:16.836Z,97239.22
2019-04-26T23:28:47.490Z,97235.64
2019-04-26T23:31:19.806Z,97246.67
2019-04-26T23:33:51.063Z,97240.23
2019-04-26T23:36:21.792Z,97237.11
2019-04-26T23:38:53.184Z,97234.38
2019-04-26T23:41:24.770Z,97232.09
2019-04-26T23:44:02.602Z,97232.21
2019-04-26T23:46:28.920Z,97231.19
2019-04-26T23:49:00.412Z,97230.06
2019-04-26T23:51:31.785Z,97231.40
2019-04-26T23:54:03.460Z,97236.45
2019-04-26T23:56:35.112Z,97236.87
2019-04-26T23:59:05.753Z,97242.79
